sensor_id;sensor_type;location;lat;lon;timestamp;pressure;altitude;pressure_sealevel;temperature;humidity
20119;BME280;10220;42.716;23.306;2023-05-20T00:01:27;95526.88;;;13.80;100.00
20119;BME280;10220;42.716;23.306;2023-05-20T00:03:53;95525.38;;;13.42;100.00
20119;BME280;10220;42.716;23.306;2023-05-20T00:06:18;95525.91;;;12.89;100.00
20119;BME280;10220;42.716;23.306;2023-05-20T00:08:43;95537.91;;;12.83;100.00
20119;BME280;10220;42.716;23.306;2023-05-20T00:11:09;95535.59;;;13.06;100.00
20119;BME280;10220;42.716;23.306;2023-05-20T00:13:34;95511.41;;;13.05;100.00
20119;BME280;10220;42.716;23.306;2023-05-20T00:16:00;95545.00;;;13.44;100.00
20119;BME280;10220;42.716;23.306;2023-05-20T00:18:25;95526.81;;;12.50;100.00
20119;BME280;10220;42.716;23.306;2023-05-20T00:20:51;95518.06;;;12.45;100.00
20119;BME280;10220;42.716;23.306;2023-05-20T00:23:18;95524.66;;;12.41;100.00
20119;BME280;10220;42.716;23.306;2023-05-20T00:25:44;95523.47;;;12.37;100.00
20119;BME280;10220;42.716;23.306;2023-05-20T00:28:09;95519.94;;;12.25;100.00
20119;BME280;10220;42.716;23.306;2023-05-20T00:30:35;95504.22;;;11.88;100.00
20119;BME280;10220;42.716;23.306;2023-05-20T00:33:00;95508.63;;;11.94;100.00
20119;BME280;10220;42.716;23.306;2023-05-20T00:35:25;95506.19;;;12.12;100.00
20119;BME280;10220;42.716;23.306;2023-05-20T00:37:51;95506.75;;;12.20;100.00
20119;BME280;10220;42.716;23.306;2023-05-20T00:40:16;95506.38;;;12.67;100.00
20119;BME280;10220;42.716;23.306;2023-05-20T00:42:42;95523.69;;;12.42;100.00
20119;BME280;10220;42.716;23.306;2023-05-20T00:45:08;95515.13;;;12.29;100.00
20119;BME280;10220;42.716;23.306;2023-05-20T00:47:34;95493.94;;;12.31;100.00
20119;BME280;10220;42.716;23.306;2023-05-20T00:50:01;95501.72;;;12.31;100.00
20119;BME280;10220;42.716;23.306;2023-05-20T00:52:31;95504.19;;;12.64;100.00
20119;BME280;10220;42.716;23.306;2023-05-20T00:54:57;95501.13;;;13.17;100.00
20119;BME280;10220;42.716;23.306;2023-05-20T00:57:24;95500.59;;;12.65;100.00
20119;BME280;10220;42.716;23.306;2023-05-20T00:59:50;95503.63;;;12.55;100.00
20119;BME280;10220;42.716;23.306;2023-05-20T01:02:16;95478.25;;;12.57;100.00
20119;BME280;10220;42.716;23.306;2023-05-20T01:04:41;95452.59;;;12.30;100.00
20119;BME280;10220;42.716;23.306;2023-05-20T01:07:13;95494.47;;;13.27;100.00
20119;BME280;10220;42.716;23.306;2023-05-20T01:09:40;95501.59;;;13.62;100.00
20119;BME280;10220;42.716;23.306;2023-05-20T01:14:42;95481.91;;;12.81;100.00
20119;BME280;10220;42.716;23.306;2023-05-20T01:17:10;95469.44;;;12.08;100.00
20119;BME280;10220;42.716;23.306;2023-05-20T01:19:40;95506.91;;;12.38;100.00
20119;BME280;10220;42.716;23.306;2023-05-20T01:22:10;95500.88;;;12.94;100.00
20119;BME280;10220;42.716;23.306;2023-05-20T01:24:40;95492.41;;;13.60;100.00
20119;BME280;10220;42.716;23.306;2023-05-20T01:27:06;95489.41;;;13.81;100.00
20119;BME280;10220;42.716;23.306;2023-05-20T01:29:35;95478.03;;;13.75;100.00
20119;BME280;10220;42.716;23.306;2023-05-20T01:32:06;95491.22;;;13.01;100.00
20119;BME280;10220;42.716;23.306;2023-05-20T01:34:34;95483.94;;;13.16;100.00
20119;BME280;10220;42.716;23.306;2023-05-20T01:37:02;95521.66;;;12.94;100.00
20119;BME280;10220;42.716;23.306;2023-05-20T01:39:29;95506.28;;;12.92;100.00
20119;BME280;10220;42.716;23.306;2023-05-20T01:41:55;95501.53;;;13.14;100.00
20119;BME280;10220;42.716;23.306;2023-05-20T01:44:21;95497.28;;;13.26;100.00
20119;BME280;10220;42.716;23.306;2023-05-20T01:46:49;95490.97;;;13.64;100.00
20119;BME280;10220;42.716;23.306;2023-05-20T01:49:15;95497.16;;;13.14;100.00
20119;BME280;10220;42.716;23.306;2023-05-20T01:51:40;95491.75;;;13.64;100.00
20119;BME280;10220;42.716;23.306;2023-05-20T01:54:06;95481.19;;;13.35;100.00
20119;BME280;10220;42.716;23.306;2023-05-20T01:56:31;95487.72;;;13.44;100.00
20119;BME280;10220;42.716;23.306;2023-05-20T01:58:57;95485.13;;;13.44;100.00
20119;BME280;10220;42.716;23.306;2023-05-20T02:01:22;95465.41;;;13.30;100.00
20119;BME280;10220;42.716;23.306;2023-05-20T02:03:47;95505.53;;;12.79;100.00
20119;BME280;10220;42.716;23.306;2023-05-20T02:06:13;95496.44;;;12.57;100.00
20119;BME280;10220;42.716;23.306;2023-05-20T02:08:38;95483.31;;;12.39;100.00
20119;BME280;10220;42.716;23.306;2023-05-20T02:11:04;95483.44;;;12.57;100.00
20119;BME280;10220;42.716;23.306;2023-05-20T02:13:29;95487.78;;;13.07;100.00
20119;BME280;10220;42.716;23.306;2023-05-20T02:15:55;95471.94;;;13.39;100.00
20119;BME280;10220;42.716;23.306;2023-05-20T02:18:20;95477.78;;;13.59;100.00
20119;BME280;10220;42.716;23.306;2023-05-20T02:20:46;95478.88;;;13.69;100.00
20119;BME280;10220;42.716;23.306;2023-05-20T02:23:11;95471.66;;;13.23;100.00
20119;BME280;10220;42.716;23.306;2023-05-20T02:25:37;95477.94;;;12.78;100.00
20119;BME280;10220;42.716;23.306;2023-05-20T02:28:02;95470.31;;;11.89;100.00
20119;BME280;10220;42.716;23.306;2023-05-20T02:30:30;95472.31;;;11.68;100.00
20119;BME280;10220;42.716;23.306;2023-05-20T02:32:55;95472.69;;;11.84;100.00
20119;BME280;10220;42.716;23.306;2023-05-20T02:35:22;95484.09;;;12.40;100.00
20119;BME280;10220;42.716;23.306;2023-05-20T02:37:47;95466.53;;;12.79;100.00
20119;BME280;10220;42.716;23.306;2023-05-20T02:40:13;95475.59;;;12.70;100.00
20119;BME280;10220;42.716;23.306;2023-05-20T02:42:39;95475.88;;;12.93;100.00
20119;BME280;10220;42.716;23.306;2023-05-20T02:45:05;95480.84;;;11.88;100.00
20119;BME280;10220;42.716;23.306;2023-05-20T02:47:31;95486.81;;;12.08;100.00
20119;BME280;10220;42.716;23.306;2023-05-20T02:49:56;95471.63;;;12.61;100.00
20119;BME280;10220;42.716;23.306;2023-05-20T02:52:21;95470.75;;;12.74;100.00
20119;BME280;10220;42.716;23.306;2023-05-20T02:54:47;95483.97;;;13.40;100.00
20119;BME280;10220;42.716;23.306;2023-05-20T02:57:12;95490.34;;;13.13;100.00
20119;BME280;10220;42.716;23.306;2023-05-20T02:59:38;95469.28;;;12.47;100.00
20119;BME280;10220;42.716;23.306;2023-05-20T03:02:03;95462.81;;;12.12;100.00
20119;BME280;10220;42.716;23.306;2023-05-20T03:04:29;95479.94;;;12.76;100.00
20119;BME280;10220;42.716;23.306;2023-05-20T03:06:55;95479.91;;;13.20;100.00
20119;BME280;10220;42.716;23.306;2023-05-20T03:09:24;95499.97;;;13.37;100.00
20119;BME280;10220;42.716;23.306;2023-05-20T03:11:50;95497.50;;;13.48;100.00
20119;BME280;10220;42.716;23.306;2023-05-20T03:14:15;95485.38;;;13.60;100.00
20119;BME280;10220;42.716;23.306;2023-05-20T03:16:41;95511.91;;;13.75;100.00
20119;BME280;10220;42.716;23.306;2023-05-20T03:19:06;95500.91;;;12.81;100.00
20119;BME280;10220;42.716;23.306;2023-05-20T03:21:32;95506.28;;;12.42;100.00
20119;BME280;10220;42.716;23.306;2023-05-20T03:23:58;95510.44;;;13.00;100.00
20119;BME280;10220;42.716;23.306;2023-05-20T03:26:24;95506.94;;;12.25;100.00
20119;BME280;10220;42.716;23.306;2023-05-20T03:28:50;95499.28;;;12.49;100.00
20119;BME280;10220;42.716;23.306;2023-05-20T03:31:15;95506.72;;;12.90;100.00
20119;BME280;10220;42.716;23.306;2023-05-20T03:33:41;95504.59;;;13.04;100.00
20119;BME280;10220;42.716;23.306;2023-05-20T03:36:07;95508.03;;;13.29;100.00
20119;BME280;10220;42.716;23.306;2023-05-20T03:38:32;95512.91;;;13.74;100.00
20119;BME280;10220;42.716;23.306;2023-05-20T03:40:57;95511.72;;;13.95;100.00
20119;BME280;10220;42.716;23.306;2023-05-20T03:43:23;95522.63;;;12.56;100.00
20119;BME280;10220;42.716;23.306;2023-05-20T03:45:49;95501.78;;;13.06;100.00
20119;BME280;10220;42.716;23.306;2023-05-20T03:48:15;95501.25;;;12.97;100.00
20119;BME280;10220;42.716;23.306;2023-05-20T03:50:40;95526.28;;;12.35;100.00
20119;BME280;10220;42.716;23.306;2023-05-20T03:53:06;95515.50;;;12.32;100.00
20119;BME280;10220;42.716;23.306;2023-05-20T03:55:32;95510.72;;;12.79;100.00
20119;BME280;10220;42.716;23.306;2023-05-20T03:57:57;95513.13;;;12.24;100.00
20119;BME280;10220;42.716;23.306;2023-05-20T04:00:23;95529.72;;;12.23;100.00
20119;BME280;10220;42.716;23.306;2023-05-20T04:02:48;95529.19;;;11.95;100.00
20119;BME280;10220;42.716;23.306;2023-05-20T04:05:14;95538.69;;;12.33;100.00
20119;BME280;10220;42.716;23.306;2023-05-20T04:07:39;95542.56;;;12.68;100.00
20119;BME280;10220;42.716;23.306;2023-05-20T04:10:06;95545.41;;;13.10;100.00
20119;BME280;10220;42.716;23.306;2023-05-20T04:12:31;95531.38;;;13.11;100.00
20119;BME280;10220;42.716;23.306;2023-05-20T04:14:58;95546.00;;;13.43;100.00
20119;BME280;10220;42.716;23.306;2023-05-20T04:17:26;95542.94;;;14.01;100.00
20119;BME280;10220;42.716;23.306;2023-05-20T04:19:54;95536.75;;;14.20;100.00
20119;BME280;10220;42.716;23.306;2023-05-20T04:22:19;95539.09;;;14.46;100.00
20119;BME280;10220;42.716;23.306;2023-05-20T04:24:45;95508.78;;;14.27;100.00
20119;BME280;10220;42.716;23.306;2023-05-20T04:27:10;95536.16;;;13.94;100.00
20119;BME280;10220;42.716;23.306;2023-05-20T04:29:36;95538.78;;;13.94;100.00
20119;BME280;10220;42.716;23.306;2023-05-20T04:32:01;95549.72;;;14.44;100.00
20119;BME280;10220;42.716;23.306;2023-05-20T04:34:30;95531.47;;;14.44;100.00
20119;BME280;10220;42.716;23.306;2023-05-20T04:36:59;95545.94;;;14.76;100.00
20119;BME280;10220;42.716;23.306;2023-05-20T04:39:25;95534.59;;;14.70;100.00
20119;BME280;10220;42.716;23.306;2023-05-20T04:41:51;95545.78;;;14.89;100.00
20119;BME280;10220;42.716;23.306;2023-05-20T04:44:18;95537.16;;;15.06;100.00
20119;BME280;10220;42.716;23.306;2023-05-20T04:46:44;95548.38;;;15.07;100.00
20119;BME280;10220;42.716;23.306;2023-05-20T04:49:10;95550.59;;;14.56;100.00
20119;BME280;10220;42.716;23.306;2023-05-20T04:51:38;95543.38;;;15.05;100.00
20119;BME280;10220;42.716;23.306;2023-05-20T04:54:03;95545.34;;;16.14;100.00
20119;BME280;10220;42.716;23.306;2023-05-20T04:56:29;95536.94;;;16.23;100.00
20119;BME280;10220;42.716;23.306;2023-05-20T04:58:54;95556.13;;;16.63;100.00
20119;BME280;10220;42.716;23.306;2023-05-20T05:01:20;95551.59;;;16.13;100.00
20119;BME280;10220;42.716;23.306;2023-05-20T05:03:45;95561.75;;;15.57;100.00
20119;BME280;10220;42.716;23.306;2023-05-20T05:06:11;95551.16;;;16.50;100.00
20119;BME280;10220;42.716;23.306;2023-05-20T05:08:36;95552.78;;;17.29;100.00
20119;BME280;10220;42.716;23.306;2023-05-20T05:11:04;95548.94;;;17.48;100.00
20119;BME280;10220;42.716;23.306;2023-05-20T05:13:30;95561.88;;;18.31;100.00
20119;BME280;10220;42.716;23.306;2023-05-20T05:15:59;95571.09;;;16.90;100.00
20119;BME280;10220;42.716;23.306;2023-05-20T05:18:26;95549.22;;;17.79;100.00
20119;BME280;10220;42.716;23.306;2023-05-20T05:21:18;95556.31;;;17.79;100.00
20119;BME280;10220;42.716;23.306;2023-05-20T05:23:43;95553.94;;;18.26;100.00
20119;BME280;10220;42.716;23.306;2023-05-20T05:26:08;95556.03;;;18.62;100.00
20119;BME280;10220;42.716;23.306;2023-05-20T05:28:34;95564.78;;;18.89;100.00
20119;BME280;10220;42.716;23.306;2023-05-20T05:30:59;95557.47;;;18.53;100.00
20119;BME280;10220;42.716;23.306;2023-05-20T05:33:26;95545.97;;;18.76;100.00
20119;BME280;10220;42.716;23.306;2023-05-20T05:35:52;95570.53;;;18.16;100.00
20119;BME280;10220;42.716;23.306;2023-05-20T05:38:17;95554.06;;;17.87;100.00
20119;BME280;10220;42.716;23.306;2023-05-20T05:40:43;95559.63;;;18.40;100.00
20119;BME280;10220;42.716;23.306;2023-05-20T05:43:08;95544.13;;;18.38;100.00
20119;BME280;10220;42.716;23.306;2023-05-20T05:45:33;95546.84;;;18.43;100.00
20119;BME280;10220;42.716;23.306;2023-05-20T05:47:59;95553.69;;;19.51;100.00
20119;BME280;10220;42.716;23.306;2023-05-20T05:50:24;95579.25;;;19.82;100.00
20119;BME280;10220;42.716;23.306;2023-05-20T05:52:49;95553.09;;;19.70;100.00
20119;BME280;10220;42.716;23.306;2023-05-20T05:55:15;95556.50;;;19.71;100.00
20119;BME280;10220;42.716;23.306;2023-05-20T05:57:42;95568.72;;;20.44;100.00
20119;BME280;10220;42.716;23.306;2023-05-20T06:00:08;95548.22;;;20.92;100.00
20119;BME280;10220;42.716;23.306;2023-05-20T06:02:33;95552.53;;;21.18;97.27
20119;BME280;10220;42.716;23.306;2023-05-20T06:05:03;95562.13;;;20.88;100.00
20119;BME280;10220;42.716;23.306;2023-05-20T06:07:29;95556.13;;;20.92;100.00
20119;BME280;10220;42.716;23.306;2023-05-20T06:09:54;95541.13;;;20.52;99.91
20119;BME280;10220;42.716;23.306;2023-05-20T06:12:20;95523.94;;;20.03;96.65
20119;BME280;10220;42.716;23.306;2023-05-20T06:14:46;95547.78;;;20.64;100.00
20119;BME280;10220;42.716;23.306;2023-05-20T06:17:11;95560.69;;;19.93;100.00
20119;BME280;10220;42.716;23.306;2023-05-20T06:19:37;95543.25;;;19.35;100.00
20119;BME280;10220;42.716;23.306;2023-05-20T06:22:02;95542.47;;;19.34;100.00
20119;BME280;10220;42.716;23.306;2023-05-20T06:24:28;95553.75;;;19.56;100.00
20119;BME280;10220;42.716;23.306;2023-05-20T06:26:56;95540.16;;;18.95;100.00
20119;BME280;10220;42.716;23.306;2023-05-20T06:29:22;95551.38;;;19.07;100.00
20119;BME280;10220;42.716;23.306;2023-05-20T06:31:47;95514.28;;;19.25;100.00
20119;BME280;10220;42.716;23.306;2023-05-20T06:34:13;95550.34;;;18.91;100.00
20119;BME280;10220;42.716;23.306;2023-05-20T06:36:38;95535.97;;;18.73;100.00
20119;BME280;10220;42.716;23.306;2023-05-20T06:39:04;95524.41;;;18.95;100.00
20119;BME280;10220;42.716;23.306;2023-05-20T06:41:31;95524.06;;;18.49;100.00
20119;BME280;10220;42.716;23.306;2023-05-20T06:43:57;95524.28;;;18.64;100.00
20119;BME280;10220;42.716;23.306;2023-05-20T06:46:22;95482.94;;;18.76;100.00
20119;BME280;10220;42.716;23.306;2023-05-20T06:48:48;95522.03;;;19.15;100.00
20119;BME280;10220;42.716;23.306;2023-05-20T06:51:13;95528.06;;;19.37;100.00
20119;BME280;10220;42.716;23.306;2023-05-20T06:53:38;95527.06;;;19.43;100.00
20119;BME280;10220;42.716;23.306;2023-05-20T06:56:04;95521.84;;;19.74;99.52
20119;BME280;10220;42.716;23.306;2023-05-20T06:58:29;95520.91;;;19.90;96.81
20119;BME280;10220;42.716;23.306;2023-05-20T07:00:55;95530.97;;;20.29;89.14
20119;BME280;10220;42.716;23.306;2023-05-20T07:03:20;95513.59;;;20.28;81.06
20119;BME280;10220;42.716;23.306;2023-05-20T07:05:46;95525.84;;;20.07;84.76
20119;BME280;10220;42.716;23.306;2023-05-20T07:08:11;95522.69;;;19.79;89.92
20119;BME280;10220;42.716;23.306;2023-05-20T07:10:37;95516.38;;;19.80;87.76
20119;BME280;10220;42.716;23.306;2023-05-20T07:13:02;95519.03;;;19.85;86.08
20119;BME280;10220;42.716;23.306;2023-05-20T07:15:28;95519.28;;;20.56;86.93
20119;BME280;10220;42.716;23.306;2023-05-20T07:17:53;95509.44;;;20.83;76.85
20119;BME280;10220;42.716;23.306;2023-05-20T07:20:19;95507.38;;;20.90;78.55
20119;BME280;10220;42.716;23.306;2023-05-20T07:22:45;95504.78;;;20.54;85.05
20119;BME280;10220;42.716;23.306;2023-05-20T07:25:11;95500.06;;;20.61;87.69
20119;BME280;10220;42.716;23.306;2023-05-20T07:27:37;95509.44;;;20.88;77.76
20119;BME280;10220;42.716;23.306;2023-05-20T07:30:03;95504.78;;;21.10;80.14
20119;BME280;10220;42.716;23.306;2023-05-20T07:32:28;95491.03;;;20.93;84.94
20119;BME280;10220;42.716;23.306;2023-05-20T07:34:53;95490.69;;;21.60;78.84
20119;BME280;10220;42.716;23.306;2023-05-20T07:37:19;95499.66;;;21.64;79.78
20119;BME280;10220;42.716;23.306;2023-05-20T07:39:44;95495.69;;;21.52;76.08
20119;BME280;10220;42.716;23.306;2023-05-20T07:42:10;95497.28;;;21.87;66.89
20119;BME280;10220;42.716;23.306;2023-05-20T07:44:35;95500.75;;;21.83;68.31
20119;BME280;10220;42.716;23.306;2023-05-20T07:47:01;95501.00;;;21.77;71.93
20119;BME280;10220;42.716;23.306;2023-05-20T07:49:26;95493.25;;;21.30;72.84
20119;BME280;10220;42.716;23.306;2023-05-20T07:51:52;95497.88;;;20.89;72.57
20119;BME280;10220;42.716;23.306;2023-05-20T07:54:17;95498.19;;;21.07;78.28
20119;BME280;10220;42.716;23.306;2023-05-20T07:56:42;95492.19;;;21.31;74.34
20119;BME280;10220;42.716;23.306;2023-05-20T07:59:08;95497.56;;;21.76;69.57
20119;BME280;10220;42.716;23.306;2023-05-20T08:01:33;95505.72;;;22.24;64.82
20119;BME280;10220;42.716;23.306;2023-05-20T08:03:59;95499.13;;;22.46;65.40
20119;BME280;10220;42.716;23.306;2023-05-20T08:06:24;95499.34;;;22.65;62.96
20119;BME280;10220;42.716;23.306;2023-05-20T08:08:53;95504.41;;;22.32;64.02
20119;BME280;10220;42.716;23.306;2023-05-20T08:11:19;95498.59;;;22.40;68.14
20119;BME280;10220;42.716;23.306;2023-05-20T08:13:48;95493.06;;;21.91;68.63
20119;BME280;10220;42.716;23.306;2023-05-20T08:16:23;95487.78;;;22.26;70.42
20119;BME280;10220;42.716;23.306;2023-05-20T08:19:14;95493.84;;;22.17;71.37
20119;BME280;10220;42.716;23.306;2023-05-20T08:21:40;95487.50;;;22.23;70.09
20119;BME280;10220;42.716;23.306;2023-05-20T08:24:05;95488.97;;;22.73;66.49
20119;BME280;10220;42.716;23.306;2023-05-20T08:26:31;95497.28;;;23.15;66.64
20119;BME280;10220;42.716;23.306;2023-05-20T08:28:56;95487.75;;;23.19;65.60
20119;BME280;10220;42.716;23.306;2023-05-20T08:31:22;95488.22;;;22.73;67.29
20119;BME280;10220;42.716;23.306;2023-05-20T08:33:47;95475.59;;;22.45;70.50
20119;BME280;10220;42.716;23.306;2023-05-20T08:36:13;95489.53;;;22.70;66.22
20119;BME280;10220;42.716;23.306;2023-05-20T08:38:38;95477.28;;;22.94;68.52
20119;BME280;10220;42.716;23.306;2023-05-20T08:41:04;95475.78;;;22.68;66.54
20119;BME280;10220;42.716;23.306;2023-05-20T08:43:29;95482.25;;;22.28;68.55
20119;BME280;10220;42.716;23.306;2023-05-20T08:45:59;95469.66;;;22.83;67.90
20119;BME280;10220;42.716;23.306;2023-05-20T08:48:28;95480.13;;;22.30;68.52
20119;BME280;10220;42.716;23.306;2023-05-20T08:50:57;95474.31;;;22.43;65.69
20119;BME280;10220;42.716;23.306;2023-05-20T08:53:23;95460.19;;;22.72;63.63
20119;BME280;10220;42.716;23.306;2023-05-20T08:55:54;95464.44;;;22.63;65.93
20119;BME280;10220;42.716;23.306;2023-05-20T08:58:22;95497.28;;;23.20;67.51
20119;BME280;10220;42.716;23.306;2023-05-20T09:00:48;95459.34;;;22.81;65.96
20119;BME280;10220;42.716;23.306;2023-05-20T09:03:13;95468.19;;;23.20;63.68
20119;BME280;10220;42.716;23.306;2023-05-20T09:05:39;95475.06;;;23.21;62.61
20119;BME280;10220;42.716;23.306;2023-05-20T09:08:09;95462.91;;;23.20;62.13
20119;BME280;10220;42.716;23.306;2023-05-20T09:10:36;95487.53;;;23.10;63.49
20119;BME280;10220;42.716;23.306;2023-05-20T09:13:03;95486.81;;;22.90;64.85
20119;BME280;10220;42.716;23.306;2023-05-20T09:15:32;95458.19;;;23.07;61.86
20119;BME280;10220;42.716;23.306;2023-05-20T09:17:59;95452.06;;;23.16;62.63
20119;BME280;10220;42.716;23.306;2023-05-20T09:20:26;95461.22;;;23.34;63.44
20119;BME280;10220;42.716;23.306;2023-05-20T09:22:53;95453.47;;;23.47;60.89
20119;BME280;10220;42.716;23.306;2023-05-20T09:25:22;95443.75;;;23.76;61.21
20119;BME280;10220;42.716;23.306;2023-05-20T09:27:48;95436.69;;;23.62;61.91
20119;BME280;10220;42.716;23.306;2023-05-20T09:30:14;95457.38;;;23.93;59.07
20119;BME280;10220;42.716;23.306;2023-05-20T09:32:42;95455.75;;;23.97;61.09
20119;BME280;10220;42.716;23.306;2023-05-20T09:35:12;95461.28;;;24.00;57.66
20119;BME280;10220;42.716;23.306;2023-05-20T09:37:40;95447.34;;;24.18;58.43
20119;BME280;10220;42.716;23.306;2023-05-20T09:40:07;95460.31;;;24.20;57.57
20119;BME280;10220;42.716;23.306;2023-05-20T09:42:49;95451.22;;;23.64;57.52
20119;BME280;10220;42.716;23.306;2023-05-20T09:45:15;95444.88;;;23.70;60.70
20119;BME280;10220;42.716;23.306;2023-05-20T09:47:42;95436.13;;;23.26;59.56
20119;BME280;10220;42.716;23.306;2023-05-20T09:50:08;95436.19;;;23.60;63.15
20119;BME280;10220;42.716;23.306;2023-05-20T09:52:38;95444.53;;;23.76;61.56
20119;BME280;10220;42.716;23.306;2023-05-20T09:55:07;95427.63;;;24.29;55.93
20119;BME280;10220;42.716;23.306;2023-05-20T09:57:35;95433.88;;;23.81;57.34
20119;BME280;10220;42.716;23.306;2023-05-20T10:00:02;95411.59;;;23.54;60.01
20119;BME280;10220;42.716;23.306;2023-05-20T10:02:33;95432.38;;;24.04;56.53
20119;BME280;10220;42.716;23.306;2023-05-20T10:05:03;95420.63;;;24.15;56.11
20119;BME280;10220;42.716;23.306;2023-05-20T10:13:22;95421.75;;;22.99;58.67
20119;BME280;10220;42.716;23.306;2023-05-20T10:16:40;95418.63;;;23.35;58.67
20119;BME280;10220;42.716;23.306;2023-05-20T10:18:48;95400.94;;;23.64;56.76
20119;BME280;10220;42.716;23.306;2023-05-20T10:21:22;95387.22;;;23.24;58.34
20119;BME280;10220;42.716;23.306;2023-05-20T10:23:49;95372.22;;;23.14;60.12
20119;BME280;10220;42.716;23.306;2023-05-20T10:26:14;95388.63;;;23.50;58.51
20119;BME280;10220;42.716;23.306;2023-05-20T10:28:40;95380.44;;;23.46;55.74
20119;BME280;10220;42.716;23.306;2023-05-20T10:31:19;95385.22;;;23.77;53.86
20119;BME280;10220;42.716;23.306;2023-05-20T10:33:45;95384.25;;;23.97;54.40
20119;BME280;10220;42.716;23.306;2023-05-20T10:36:28;95394.00;;;24.01;52.03
20119;BME280;10220;42.716;23.306;2023-05-20T10:38:57;95393.75;;;24.26;50.26
20119;BME280;10220;42.716;23.306;2023-05-20T10:41:27;95375.50;;;23.68;51.54
20119;BME280;10220;42.716;23.306;2023-05-20T10:44:03;95370.66;;;23.47;51.17
20119;BME280;10220;42.716;23.306;2023-05-20T10:46:30;95373.44;;;23.93;51.07
20119;BME280;10220;42.716;23.306;2023-05-20T10:48:56;95351.38;;;23.74;51.37
20119;BME280;10220;42.716;23.306;2023-05-20T10:51:22;95336.00;;;24.46;50.14
20119;BME280;10220;42.716;23.306;2023-05-20T10:53:51;95355.13;;;24.85;49.65
20119;BME280;10220;42.716;23.306;2023-05-20T10:56:22;95362.50;;;24.46;49.16
20119;BME280;10220;42.716;23.306;2023-05-20T10:58:48;95370.56;;;24.41;49.79
20119;BME280;10220;42.716;23.306;2023-05-20T11:01:15;95341.44;;;24.96;48.07
20119;BME280;10220;42.716;23.306;2023-05-20T11:03:42;95338.47;;;25.35;48.22
20119;BME280;10220;42.716;23.306;2023-05-20T11:06:27;95326.94;;;25.57;47.63
20119;BME280;10220;42.716;23.306;2023-05-20T11:08:53;95324.56;;;25.43;46.65
20119;BME280;10220;42.716;23.306;2023-05-20T11:11:19;95333.28;;;25.30;48.29
20119;BME280;10220;42.716;23.306;2023-05-20T11:13:49;95339.34;;;25.62;49.00
20119;BME280;10220;42.716;23.306;2023-05-20T11:16:15;95350.91;;;25.71;46.46
20119;BME280;10220;42.716;23.306;2023-05-20T11:18:40;95330.19;;;25.54;47.78
20119;BME280;10220;42.716;23.306;2023-05-20T11:21:06;95330.19;;;25.54;47.18
20119;BME280;10220;42.716;23.306;2023-05-20T11:23:31;95322.66;;;25.30;47.42
20119;BME280;10220;42.716;23.306;2023-05-20T11:25:57;95330.56;;;24.15;50.66
20119;BME280;10220;42.716;23.306;2023-05-20T11:28:22;95332.28;;;23.77;55.25
20119;BME280;10220;42.716;23.306;2023-05-20T11:30:49;95311.97;;;23.40;56.01
20119;BME280;10220;42.716;23.306;2023-05-20T11:33:16;95296.41;;;23.33;56.54
20119;BME280;10220;42.716;23.306;2023-05-20T11:35:47;95303.44;;;23.19;57.17
20119;BME280;10220;42.716;23.306;2023-05-20T11:38:13;95308.72;;;23.48;56.94
20119;BME280;10220;42.716;23.306;2023-05-20T11:40:46;95301.03;;;23.51;56.91
20119;BME280;10220;42.716;23.306;2023-05-20T11:43:13;95299.53;;;22.74;59.31
20119;BME280;10220;42.716;23.306;2023-05-20T11:45:44;95316.66;;;23.19;60.03
20119;BME280;10220;42.716;23.306;2023-05-20T11:48:11;95295.16;;;23.54;58.32
20119;BME280;10220;42.716;23.306;2023-05-20T11:50:41;95316.13;;;23.79;58.30
20119;BME280;10220;42.716;23.306;2023-05-20T11:53:09;95281.78;;;23.12;57.70
20119;BME280;10220;42.716;23.306;2023-05-20T11:55:49;95298.63;;;23.21;60.53
20119;BME280;10220;42.716;23.306;2023-05-20T11:58:26;95291.03;;;23.15;60.23
20119;BME280;10220;42.716;23.306;2023-05-20T12:00:52;95306.56;;;22.88;59.57
20119;BME280;10220;42.716;23.306;2023-05-20T12:03:17;95301.91;;;23.08;60.84
20119;BME280;10220;42.716;23.306;2023-05-20T12:05:43;95293.19;;;23.13;61.58
20119;BME280;10220;42.716;23.306;2023-05-20T12:08:09;95285.75;;;23.15;59.71
20119;BME280;10220;42.716;23.306;2023-05-20T12:10:34;95282.25;;;22.86;60.24
20119;BME280;10220;42.716;23.306;2023-05-20T12:13:02;95283.44;;;22.65;57.94
20119;BME280;10220;42.716;23.306;2023-05-20T12:15:28;95281.16;;;22.92;58.40
20119;BME280;10220;42.716;23.306;2023-05-20T12:17:54;95262.38;;;22.94;58.50
20119;BME280;10220;42.716;23.306;2023-05-20T12:20:23;95281.06;;;22.64;57.94
20119;BME280;10220;42.716;23.306;2023-05-20T12:22:51;95280.13;;;22.45;58.35
20119;BME280;10220;42.716;23.306;2023-05-20T12:25:18;95265.16;;;22.31;59.00
20119;BME280;10220;42.716;23.306;2023-05-20T12:27:45;95293.22;;;22.65;61.10
20119;BME280;10220;42.716;23.306;2023-05-20T12:30:17;95292.81;;;22.86;59.69
20119;BME280;10220;42.716;23.306;2023-05-20T12:32:44;95276.19;;;22.86;59.31
20119;BME280;10220;42.716;23.306;2023-05-20T12:35:11;95282.97;;;22.58;56.75
20119;BME280;10220;42.716;23.306;2023-05-20T12:37:38;95287.84;;;22.37;59.78
20119;BME280;10220;42.716;23.306;2023-05-20T12:40:04;95292.56;;;22.40;61.88
20119;BME280;10220;42.716;23.306;2023-05-20T12:42:34;95309.22;;;22.40;66.47
20119;BME280;10220;42.716;23.306;2023-05-20T12:45:00;95301.09;;;22.27;64.82
20119;BME280;10220;42.716;23.306;2023-05-20T12:47:25;95322.94;;;21.39;63.38
20119;BME280;10220;42.716;23.306;2023-05-20T12:49:51;95281.25;;;21.46;60.31
20119;BME280;10220;42.716;23.306;2023-05-20T12:52:16;95312.38;;;21.39;58.07